sensor_id;sensor_type;location;lat;lon;timestamp;pressure;altitude;pressure_sealevel;temperature;humidity
73941;BME280;62294;48.554;10.202;2023-01-01T00:01:42;96525.94;;;4.97;100.00
73941;BME280;62294;48.554;10.202;2023-01-01T00:04:13;96512.97;;;4.96;99.83
73941;BME280;62294;48.554;10.202;2023-01-01T00:06:41;96519.06;;;4.96;100.00
73941;BME280;62294;48.554;10.202;2023-01-01T00:09:09;96516.75;;;4.93;100.00
73941;BME280;62294;48.554;10.202;2023-01-01T00:11:54;96526.84;;;4.82;100.00
73941;BME280;62294;48.554;10.202;2023-01-01T00:14:21;96526.38;;;4.78;99.85
73941;BME280;62294;48.554;10.202;2023-01-01T00:16:47;96538.72;;;4.78;100.00
73941;BME280;62294;48.554;10.202;2023-01-01T00:19:14;96533.50;;;4.70;100.00
73941;BME280;62294;48.554;10.202;2023-01-01T00:21:41;96547.84;;;4.59;100.00
73941;BME280;62294;48.554;10.202;2023-01-01T00:24:07;96542.78;;;4.50;100.00
73941;BME280;62294;48.554;10.202;2023-01-01T00:26:34;96548.88;;;4.50;100.00
73941;BME280;62294;48.554;10.202;2023-01-01T00:29:02;96545.63;;;4.40;99.92
73941;BME280;62294;48.554;10.202;2023-01-01T00:31:29;96548.41;;;4.39;100.00
73941;BME280;62294;48.554;10.202;2023-01-01T00:33:56;96543.50;;;4.36;100.00
73941;BME280;62294;48.554;10.202;2023-01-01T00:36:25;96550.69;;;4.42;100.00
73941;BME280;62294;48.554;10.202;2023-01-01T00:38:52;96560.41;;;4.41;100.00
73941;BME280;62294;48.554;10.202;2023-01-01T00:41:19;96553.34;;;4.42;99.98
73941;BME280;62294;48.554;10.202;2023-01-01T00:43:46;96554.63;;;4.46;100.00
73941;BME280;62294;48.554;10.202;2023-01-01T00:46:13;96553.31;;;4.50;100.00
73941;BME280;62294;48.554;10.202;2023-01-01T00:48:39;96555.66;;;4.45;100.00
73941;BME280;62294;48.554;10.202;2023-01-01T00:51:06;96557.78;;;4.41;100.00
73941;BME280;62294;48.554;10.202;2023-01-01T00:53:33;96555.28;;;4.48;100.00
73941;BME280;62294;48.554;10.202;2023-01-01T00:55:59;96553.81;;;4.53;100.00
73941;BME280;62294;48.554;10.202;2023-01-01T00:58:26;96560.22;;;4.51;100.00
73941;BME280;62294;48.554;10.202;2023-01-01T01:00:53;96551.34;;;4.52;99.99
73941;BME280;62294;48.554;10.202;2023-01-01T01:03:20;96550.19;;;4.38;100.00
73941;BME280;62294;48.554;10.202;2023-01-01T01:05:57;96561.41;;;4.32;100.00
73941;BME280;62294;48.554;10.202;2023-01-01T01:08:25;96556.81;;;4.34;100.00
73941;BME280;62294;48.554;10.202;2023-01-01T01:11:10;96553.00;;;4.37;100.00
73941;BME280;62294;48.554;10.202;2023-01-01T01:13:39;96551.38;;;4.36;100.00
73941;BME280;62294;48.554;10.202;2023-01-01T01:16:12;96547.28;;;4.33;100.00
73941;BME280;62294;48.554;10.202;2023-01-01T01:18:40;96555.31;;;4.31;100.00
73941;BME280;62294;48.554;10.202;2023-01-01T01:21:07;96548.44;;;4.30;100.00
73941;BME280;62294;48.554;10.202;2023-01-01T01:23:34;96545.81;;;4.30;100.00
73941;BME280;62294;48.554;10.202;2023-01-01T01:26:12;96543.16;;;4.30;100.00
73941;BME280;62294;48.554;10.202;2023-01-01T01:28:40;96536.75;;;4.33;100.00
73941;BME280;62294;48.554;10.202;2023-01-01T01:31:15;96529.84;;;4.32;100.00
73941;BME280;62294;48.554;10.202;2023-01-01T01:33:42;96536.56;;;4.35;100.00
73941;BME280;62294;48.554;10.202;2023-01-01T01:36:11;96529.69;;;4.25;100.00
73941;BME280;62294;48.554;10.202;2023-01-01T01:38:37;96528.72;;;4.26;100.00
73941;BME280;62294;48.554;10.202;2023-01-01T01:41:04;96529.00;;;4.31;100.00
73941;BME280;62294;48.554;10.202;2023-01-01T01:46:05;96534.63;;;4.28;100.00
73941;BME280;62294;48.554;10.202;2023-01-01T01:48:38;96531.69;;;4.23;100.00
73941;BME280;62294;48.554;10.202;2023-01-01T01:51:06;96526.41;;;4.23;100.00
73941;BME280;62294;48.554;10.202;2023-01-01T01:53:37;96528.03;;;4.32;100.00
73941;BME280;62294;48.554;10.202;2023-01-01T01:56:11;96519.31;;;4.32;100.00
73941;BME280;62294;48.554;10.202;2023-01-01T01:58:38;96533.25;;;4.41;100.00
73941;BME280;62294;48.554;10.202;2023-01-01T02:01:05;96528.34;;;4.38;100.00
73941;BME280;62294;48.554;10.202;2023-01-01T02:06:18;96528.88;;;5.02;100.00
73941;BME280;62294;48.554;10.202;2023-01-01T02:08:45;96521.19;;;5.92;100.00
73941;BME280;62294;48.554;10.202;2023-01-01T02:11:11;96523.81;;;6.29;100.00
73941;BME280;62294;48.554;10.202;2023-01-01T02:13:45;96514.72;;;6.46;100.00
73941;BME280;62294;48.554;10.202;2023-01-01T02:16:18;96517.44;;;6.67;100.00
73941;BME280;62294;48.554;10.202;2023-01-01T02:21:24;96510.63;;;7.08;100.00
73941;BME280;62294;48.554;10.202;2023-01-01T02:26:47;96521.50;;;6.99;100.00
73941;BME280;62294;48.554;10.202;2023-01-01T02:29:21;96515.88;;;6.87;100.00
73941;BME280;62294;48.554;10.202;2023-01-01T02:32:04;96517.59;;;6.80;100.00
73941;BME280;62294;48.554;10.202;2023-01-01T02:34:39;96528.78;;;6.97;99.84
73941;BME280;62294;48.554;10.202;2023-01-01T02:37:09;96523.72;;;7.16;100.00
73941;BME280;62294;48.554;10.202;2023-01-01T02:39:42;96528.06;;;7.39;100.00
73941;BME280;62294;48.554;10.202;2023-01-01T02:42:11;96526.69;;;7.64;99.20
73941;BME280;62294;48.554;10.202;2023-01-01T02:44:40;96533.56;;;7.79;99.00
73941;BME280;62294;48.554;10.202;2023-01-01T02:47:14;96524.09;;;7.92;98.37
73941;BME280;62294;48.554;10.202;2023-01-01T02:50:02;96510.56;;;7.80;98.39
73941;BME280;62294;48.554;10.202;2023-01-01T02:57:45;96512.31;;;7.52;97.03
73941;BME280;62294;48.554;10.202;2023-01-01T03:00:17;96514.22;;;7.37;96.75
73941;BME280;62294;48.554;10.202;2023-01-01T03:06:17;96520.38;;;7.08;96.53
73941;BME280;62294;48.554;10.202;2023-01-01T03:11:20;96537.13;;;6.79;97.16
73941;BME280;62294;48.554;10.202;2023-01-01T03:13:52;96524.53;;;7.32;97.29
73941;BME280;62294;48.554;10.202;2023-01-01T03:16:30;96522.34;;;7.77;96.37
73941;BME280;62294;48.554;10.202;2023-01-01T03:19:01;96529.44;;;7.98;95.74
73941;BME280;62294;48.554;10.202;2023-01-01T03:22:09;96524.56;;;8.02;95.69
73941;BME280;62294;48.554;10.202;2023-01-01T03:24:43;96535.22;;;8.08;95.42
73941;BME280;62294;48.554;10.202;2023-01-01T03:27:17;96535.22;;;8.08;94.86
73941;BME280;62294;48.554;10.202;2023-01-01T03:29:45;96532.31;;;8.03;94.99
73941;BME280;62294;48.554;10.202;2023-01-01T03:32:17;96530.69;;;8.02;94.60
73941;BME280;62294;48.554;10.202;2023-01-01T03:34:52;96524.66;;;7.87;94.69
73941;BME280;62294;48.554;10.202;2023-01-01T03:37:24;96532.47;;;7.74;94.80
73941;BME280;62294;48.554;10.202;2023-01-01T03:39:56;96528.06;;;7.60;94.84
73941;BME280;62294;48.554;10.202;2023-01-01T03:42:31;96534.19;;;7.39;95.24
73941;BME280;62294;48.554;10.202;2023-01-01T03:45:00;96534.59;;;7.43;94.87
73941;BME280;62294;48.554;10.202;2023-01-01T03:47:30;96533.84;;;7.49;95.08
73941;BME280;62294;48.554;10.202;2023-01-01T03:49:56;96534.41;;;7.44;95.25
73941;BME280;62294;48.554;10.202;2023-01-01T03:52:49;96538.63;;;7.39;94.76
73941;BME280;62294;48.554;10.202;2023-01-01T03:58:12;96559.25;;;7.29;95.35
73941;BME280;62294;48.554;10.202;2023-01-01T04:00:55;96557.81;;;7.62;94.91
73941;BME280;62294;48.554;10.202;2023-01-01T04:03:28;96557.63;;;7.28;94.81
73941;BME280;62294;48.554;10.202;2023-01-01T04:05:56;96554.88;;;7.36;95.08
73941;BME280;62294;48.554;10.202;2023-01-01T04:08:23;96552.13;;;7.65;95.21
73941;BME280;62294;48.554;10.202;2023-01-01T04:10:54;96556.91;;;7.76;95.28
73941;BME280;62294;48.554;10.202;2023-01-01T04:13:22;96555.91;;;7.56;95.05
73941;BME280;62294;48.554;10.202;2023-01-01T04:15:49;96553.09;;;7.57;94.48
73941;BME280;62294;48.554;10.202;2023-01-01T04:18:16;96550.84;;;7.40;94.42
73941;BME280;62294;48.554;10.202;2023-01-01T04:20:42;96548.69;;;7.29;94.47
73941;BME280;62294;48.554;10.202;2023-01-01T04:23:09;96543.19;;;7.09;94.79
73941;BME280;62294;48.554;10.202;2023-01-01T04:25:35;96538.38;;;6.98;95.31
73941;BME280;62294;48.554;10.202;2023-01-01T04:28:02;96542.63;;;6.99;95.30
73941;BME280;62294;48.554;10.202;2023-01-01T04:30:29;96555.28;;;7.03;95.11
73941;BME280;62294;48.554;10.202;2023-01-01T04:32:55;96567.25;;;6.99;95.99
73941;BME280;62294;48.554;10.202;2023-01-01T04:35:22;96567.53;;;7.04;95.91
73941;BME280;62294;48.554;10.202;2023-01-01T04:37:48;96551.09;;;7.09;95.59
73941;BME280;62294;48.554;10.202;2023-01-01T04:40:15;96563.84;;;7.05;95.69
73941;BME280;62294;48.554;10.202;2023-01-01T04:42:41;96571.16;;;7.03;95.92
73941;BME280;62294;48.554;10.202;2023-01-01T04:45:09;96574.06;;;7.08;95.92
73941;BME280;62294;48.554;10.202;2023-01-01T04:47:37;96568.50;;;7.03;95.85
73941;BME280;62294;48.554;10.202;2023-01-01T04:50:04;96555.38;;;7.10;95.63
73941;BME280;62294;48.554;10.202;2023-01-01T04:52:31;96552.66;;;7.03;96.38
73941;BME280;62294;48.554;10.202;2023-01-01T04:54:58;96559.03;;;6.94;96.07
73941;BME280;62294;48.554;10.202;2023-01-01T04:57:24;96556.41;;;6.94;96.33
73941;BME280;62294;48.554;10.202;2023-01-01T04:59:51;96569.53;;;6.88;96.37
73941;BME280;62294;48.554;10.202;2023-01-01T05:02:17;96563.88;;;6.76;96.79
73941;BME280;62294;48.554;10.202;2023-01-01T05:04:44;96569.00;;;6.63;96.08
73941;BME280;62294;48.554;10.202;2023-01-01T05:07:10;96583.56;;;6.59;96.39
73941;BME280;62294;48.554;10.202;2023-01-01T05:09:37;96582.66;;;6.67;96.83
73941;BME280;62294;48.554;10.202;2023-01-01T05:12:03;96570.19;;;6.75;96.77
73941;BME280;62294;48.554;10.202;2023-01-01T05:14:30;96560.53;;;6.68;97.08
73941;BME280;62294;48.554;10.202;2023-01-01T05:16:56;96566.06;;;6.87;96.51
73941;BME280;62294;48.554;10.202;2023-01-01T05:19:23;96568.34;;;7.05;97.36
73941;BME280;62294;48.554;10.202;2023-01-01T05:21:49;96575.44;;;7.04;96.68
73941;BME280;62294;48.554;10.202;2023-01-01T05:24:16;96587.41;;;6.86;96.75
73941;BME280;62294;48.554;10.202;2023-01-01T05:26:43;96587.56;;;6.55;96.10
73941;BME280;62294;48.554;10.202;2023-01-01T05:29:10;96590.09;;;6.34;96.45
73941;BME280;62294;48.554;10.202;2023-01-01T05:31:42;96599.88;;;6.11;96.44
73941;BME280;62294;48.554;10.202;2023-01-01T05:34:10;96588.97;;;5.91;96.16
73941;BME280;62294;48.554;10.202;2023-01-01T05:36:37;96598.44;;;5.78;96.09
73941;BME280;62294;48.554;10.202;2023-01-01T05:39:06;96604.75;;;5.68;96.69
73941;BME280;62294;48.554;10.202;2023-01-01T05:41:33;96593.00;;;5.56;95.95
73941;BME280;62294;48.554;10.202;2023-01-01T05:44:03;96600.28;;;5.46;96.82
73941;BME280;62294;48.554;10.202;2023-01-01T05:46:30;96602.16;;;5.38;96.75
73941;BME280;62294;48.554;10.202;2023-01-01T05:48:58;96603.72;;;5.24;97.05
73941;BME280;62294;48.554;10.202;2023-01-01T05:51:26;96616.59;;;5.11;96.70
73941;BME280;62294;48.554;10.202;2023-01-01T05:53:54;96621.44;;;4.99;97.11
73941;BME280;62294;48.554;10.202;2023-01-01T05:56:21;96624.25;;;4.98;96.86
73941;BME280;62294;48.554;10.202;2023-01-01T05:58:48;96630.22;;;4.84;96.61
73941;BME280;62294;48.554;10.202;2023-01-01T06:01:26;96635.19;;;4.79;97.16
73941;BME280;62294;48.554;10.202;2023-01-01T06:03:55;96630.41;;;4.74;97.33
73941;BME280;62294;48.554;10.202;2023-01-01T06:06:25;96637.13;;;4.85;97.83
73941;BME280;62294;48.554;10.202;2023-01-01T06:08:53;96634.34;;;4.78;98.55
73941;BME280;62294;48.554;10.202;2023-01-01T06:11:20;96635.19;;;4.71;98.48
73941;BME280;62294;48.554;10.202;2023-01-01T06:13:47;96626.97;;;4.66;98.36
73941;BME280;62294;48.554;10.202;2023-01-01T06:16:13;96631.47;;;4.49;98.29
73941;BME280;62294;48.554;10.202;2023-01-01T06:18:40;96634.09;;;4.41;98.22
73941;BME280;62294;48.554;10.202;2023-01-01T06:21:12;96633.94;;;4.35;98.14
73941;BME280;62294;48.554;10.202;2023-01-01T06:23:39;96629.66;;;4.33;98.21
73941;BME280;62294;48.554;10.202;2023-01-01T06:26:12;96635.25;;;4.47;98.43
73941;BME280;62294;48.554;10.202;2023-01-01T06:28:39;96641.06;;;4.97;99.06
73941;BME280;62294;48.554;10.202;2023-01-01T06:31:09;96643.13;;;5.10;99.07
73941;BME280;62294;48.554;10.202;2023-01-01T06:33:36;96635.53;;;5.45;99.89
73941;BME280;62294;48.554;10.202;2023-01-01T06:36:05;96642.25;;;5.56;99.61
73941;BME280;62294;48.554;10.202;2023-01-01T06:38:35;96636.28;;;5.93;99.78
73941;BME280;62294;48.554;10.202;2023-01-01T06:41:04;96636.44;;;6.14;99.86
73941;BME280;62294;48.554;10.202;2023-01-01T06:43:33;96642.50;;;6.22;99.39
73941;BME280;62294;48.554;10.202;2023-01-01T06:46:04;96639.03;;;6.22;99.37
73941;BME280;62294;48.554;10.202;2023-01-01T06:48:34;96633.03;;;6.28;100.00
73941;BME280;62294;48.554;10.202;2023-01-01T06:51:15;96643.13;;;6.24;99.50
73941;BME280;62294;48.554;10.202;2023-01-01T06:53:42;96646.41;;;6.26;99.25
73941;BME280;62294;48.554;10.202;2023-01-01T06:56:09;96641.59;;;6.30;99.15
73941;BME280;62294;48.554;10.202;2023-01-01T06:58:36;96653.63;;;6.10;99.07
73941;BME280;62294;48.554;10.202;2023-01-01T07:03:35;96652.16;;;5.85;98.73
73941;BME280;62294;48.554;10.202;2023-01-01T07:06:02;96656.22;;;5.64;99.12
73941;BME280;62294;48.554;10.202;2023-01-01T07:08:28;96666.25;;;5.38;98.55
73941;BME280;62294;48.554;10.202;2023-01-01T07:10:55;96668.63;;;5.17;98.50
73941;BME280;62294;48.554;10.202;2023-01-01T07:13:23;96671.47;;;5.08;98.39
73941;BME280;62294;48.554;10.202;2023-01-01T07:15:51;96673.31;;;4.99;98.45
73941;BME280;62294;48.554;10.202;2023-01-01T07:18:19;96673.63;;;4.96;98.67
73941;BME280;62294;48.554;10.202;2023-01-01T07:20:54;96677.47;;;4.85;98.17
73941;BME280;62294;48.554;10.202;2023-01-01T07:23:22;96677.97;;;4.81;98.39
73941;BME280;62294;48.554;10.202;2023-01-01T07:25:49;96684.25;;;4.72;98.29
73941;BME280;62294;48.554;10.202;2023-01-01T07:28:16;96676.34;;;4.64;98.08
73941;BME280;62294;48.554;10.202;2023-01-01T07:30:43;96676.69;;;4.61;98.43
73941;BME280;62294;48.554;10.202;2023-01-01T07:33:14;96677.66;;;4.60;98.21
73941;BME280;62294;48.554;10.202;2023-01-01T07:35:41;96685.88;;;4.57;98.38
73941;BME280;62294;48.554;10.202;2023-01-01T07:38:10;96696.41;;;4.57;98.07
73941;BME280;62294;48.554;10.202;2023-01-01T07:40:37;96696.59;;;4.55;98.42
73941;BME280;62294;48.554;10.202;2023-01-01T07:43:03;96709.75;;;4.55;98.45
73941;BME280;62294;48.554;10.202;2023-01-01T07:45:30;96709.97;;;5.17;99.51
73941;BME280;62294;48.554;10.202;2023-01-01T07:47:58;96708.81;;;5.58;99.44
73941;BME280;62294;48.554;10.202;2023-01-01T07:50:26;96708.69;;;5.90;99.24
73941;BME280;62294;48.554;10.202;2023-01-01T07:52:54;96706.06;;;6.13;99.73
73941;BME280;62294;48.554;10.202;2023-01-01T07:55:21;96714.31;;;6.10;98.87
73941;BME280;62294;48.554;10.202;2023-01-01T07:57:47;96720.78;;;6.07;99.04
73941;BME280;62294;48.554;10.202;2023-01-01T08:00:17;96727.72;;;6.08;99.19
73941;BME280;62294;48.554;10.202;2023-01-01T08:02:44;96723.31;;;6.23;99.48
73941;BME280;62294;48.554;10.202;2023-01-01T08:05:10;96729.81;;;6.35;99.59
73941;BME280;62294;48.554;10.202;2023-01-01T08:07:37;96722.72;;;6.59;99.14
73941;BME280;62294;48.554;10.202;2023-01-01T08:10:05;96720.59;;;6.91;98.95
73941;BME280;62294;48.554;10.202;2023-01-01T08:12:32;96714.25;;;7.15;99.11
73941;BME280;62294;48.554;10.202;2023-01-01T08:14:59;96711.44;;;7.31;98.37
73941;BME280;62294;48.554;10.202;2023-01-01T08:17:25;96708.34;;;7.28;98.49
73941;BME280;62294;48.554;10.202;2023-01-01T08:19:52;96703.22;;;7.26;98.33
73941;BME280;62294;48.554;10.202;2023-01-01T08:22:18;96708.78;;;7.46;98.20
73941;BME280;62294;48.554;10.202;2023-01-01T08:24:45;96710.50;;;7.68;97.90
73941;BME280;62294;48.554;10.202;2023-01-01T08:27:15;96708.66;;;8.04;97.31
73941;BME280;62294;48.554;10.202;2023-01-01T08:29:43;96703.69;;;8.51;96.03
73941;BME280;62294;48.554;10.202;2023-01-01T08:32:10;96707.63;;;9.11;95.39
73941;BME280;62294;48.554;10.202;2023-01-01T08:34:37;96705.28;;;9.29;94.24
73941;BME280;62294;48.554;10.202;2023-01-01T08:37:04;96713.25;;;9.01;93.35
73941;BME280;62294;48.554;10.202;2023-01-01T08:39:30;96714.53;;;9.05;92.88
73941;BME280;62294;48.554;10.202;2023-01-01T08:41:57;96721.50;;;9.13;92.28
73941;BME280;62294;48.554;10.202;2023-01-01T08:44:23;96724.59;;;9.16;92.09
73941;BME280;62294;48.554;10.202;2023-01-01T08:46:51;96721.19;;;9.29;91.40
73941;BME280;62294;48.554;10.202;2023-01-01T08:49:18;96719.72;;;9.54;91.30
73941;BME280;62294;48.554;10.202;2023-01-01T08:51:45;96734.31;;;9.37;90.92
73941;BME280;62294;48.554;10.202;2023-01-01T08:54:11;96727.34;;;9.70;90.11
73941;BME280;62294;48.554;10.202;2023-01-01T08:56:38;96723.84;;;9.63;89.79
73941;BME280;62294;48.554;10.202;2023-01-01T08:59:04;96728.78;;;9.66;89.60
73941;BME280;62294;48.554;10.202;2023-01-01T09:01:31;96725.81;;;9.48;89.10
73941;BME280;62294;48.554;10.202;2023-01-01T09:03:58;96729.88;;;9.85;88.79
73941;BME280;62294;48.554;10.202;2023-01-01T09:06:24;96735.28;;;9.64;88.84
73941;BME280;62294;48.554;10.202;2023-01-01T09:08:51;96735.78;;;9.80;88.45
73941;BME280;62294;48.554;10.202;2023-01-01T09:11:25;96734.44;;;10.04;87.90
73941;BME280;62294;48.554;10.202;2023-01-01T09:13:53;96733.41;;;9.98;87.63
73941;BME280;62294;48.554;10.202;2023-01-01T09:16:20;96738.97;;;10.04;87.06
73941;BME280;62294;48.554;10.202;2023-01-01T09:18:48;96731.47;;;10.20;86.98
73941;BME280;62294;48.554;10.202;2023-01-01T09:21:14;96737.50;;;9.94;86.87
73941;BME280;62294;48.554;10.202;2023-01-01T09:23:41;96740.88;;;9.75;87.29
73941;BME280;62294;48.554;10.202;2023-01-01T09:26:08;96737.94;;;9.64;87.46
73941;BME280;62294;48.554;10.202;2023-01-01T09:28:36;96752.47;;;9.74;87.73
73941;BME280;62294;48.554;10.202;2023-01-01T09:31:03;96746.06;;;9.90;87.74
73941;BME280;62294;48.554;10.202;2023-01-01T09:33:32;96744.00;;;9.92;87.63
73941;BME280;62294;48.554;10.202;2023-01-01T09:36:12;96743.56;;;9.88;87.42
73941;BME280;62294;48.554;10.202;2023-01-01T09:38:39;96743.53;;;9.82;87.93
73941;BME280;62294;48.554;10.202;2023-01-01T09:41:30;96742.53;;;9.83;87.86
73941;BME280;62294;48.554;10.202;2023-01-01T09:46:51;96749.13;;;10.00;87.30
73941;BME280;62294;48.554;10.202;2023-01-01T09:49:34;96763.72;;;10.11;87.11
73941;BME280;62294;48.554;10.202;2023-01-01T09:52:03;96754.75;;;10.18;86.69
73941;BME280;62294;48.554;10.202;2023-01-01T09:54:36;96750.72;;;10.35;86.01
73941;BME280;62294;48.554;10.202;2023-01-01T09:57:06;96752.78;;;10.40;85.86
73941;BME280;62294;48.554;10.202;2023-01-01T09:59:45;96750.75;;;10.48;85.22
73941;BME280;62294;48.554;10.202;2023-01-01T10:02:42;96734.81;;;10.55;85.70
73941;BME280;62294;48.554;10.202;2023-01-01T10:11:13;96723.41;;;10.74;85.30
73941;BME280;62294;48.554;10.202;2023-01-01T10:13:44;96714.00;;;10.85;84.97
73941;BME280;62294;48.554;10.202;2023-01-01T10:16:21;96708.66;;;10.91;84.33
73941;BME280;62294;48.554;10.202;2023-01-01T10:18:54;96709.47;;;11.05;84.12
73941;BME280;62294;48.554;10.202;2023-01-01T10:21:33;96707.84;;;11.10;83.82
73941;BME280;62294;48.554;10.202;2023-01-01T10:24:37;96709.88;;;11.21;83.93
73941;BME280;62294;48.554;10.202;2023-01-01T10:27:05;96716.03;;;11.22;83.67
73941;BME280;62294;48.554;10.202;2023-01-01T10:29:42;96715.59;;;11.25;83.31
73941;BME280;62294;48.554;10.202;2023-01-01T10:32:18;96718.88;;;11.40;83.20
73941;BME280;62294;48.554;10.202;2023-01-01T10:34:46;96722.75;;;11.44;82.88
73941;BME280;62294;48.554;10.202;2023-01-01T10:37:14;96717.19;;;11.59;82.54
73941;BME280;62294;48.554;10.202;2023-01-01T10:39:41;96709.19;;;11.72;81.99
73941;BME280;62294;48.554;10.202;2023-01-01T10:42:11;96712.03;;;11.77;81.60
73941;BME280;62294;48.554;10.202;2023-01-01T10:44:38;96697.06;;;11.82;81.60
73941;BME280;62294;48.554;10.202;2023-01-01T10:47:25;96709.75;;;11.87;81.70
73941;BME280;62294;48.554;10.202;2023-01-01T10:50:04;96698.28;;;11.86;80.89
73941;BME280;62294;48.554;10.202;2023-01-01T10:52:38;96695.75;;;11.98;80.84
73941;BME280;62294;48.554;10.202;2023-01-01T10:55:28;96699.06;;;12.00;81.21
73941;BME280;62294;48.554;10.202;2023-01-01T10:57:55;96695.94;;;12.03;80.11
73941;BME280;62294;48.554;10.202;2023-01-01T11:00:26;96695.34;;;12.01;80.90
73941;BME280;62294;48.554;10.202;2023-01-01T11:03:17;96703.94;;;12.03;80.31
73941;BME280;62294;48.554;10.202;2023-01-01T11:06:02;96696.53;;;12.05;80.22
73941;BME280;62294;48.554;10.202;2023-01-01T11:08:32;96694.09;;;12.03;80.43
73941;BME280;62294;48.554;10.202;2023-01-01T11:11:00;96690.41;;;12.04;80.34
73941;BME280;62294;48.554;10.202;2023-01-01T11:13:28;96685.25;;;12.09;80.45
73941;BME280;62294;48.554;10.202;2023-01-01T11:15:55;96690.94;;;12.20;80.09
73941;BME280;62294;48.554;10.202;2023-01-01T11:18:28;96678.78;;;12.30;79.89
73941;BME280;62294;48.554;10.202;2023-01-01T11:21:03;96678.78;;;12.30;79.46
73941;BME280;62294;48.554;10.202;2023-01-01T11:23:33;96674.41;;;12.42;79.37
73941;BME280;62294;48.554;10.202;2023-01-01T11:26:03;96676.56;;;12.58;78.87
73941;BME280;62294;48.554;10.202;2023-01-01T11:28:32;96670.75;;;12.68;78.75
73941;BME280;62294;48.554;10.202;2023-01-01T11:31:14;96659.53;;;12.84;78.33
73941;BME280;62294;48.554;10.202;2023-01-01T11:33:47;96663.72;;;12.73;77.43
73941;BME280;62294;48.554;10.202;2023-01-01T11:36:29;96661.19;;;12.54;77.86
73941;BME280;62294;48.554;10.202;2023-01-01T11:39:21;96666.69;;;12.34;78.54
73941;BME280;62294;48.554;10.202;2023-01-01T11:41:52;96658.06;;;12.32;78.76
73941;BME280;62294;48.554;10.202;2023-01-01T11:44:35;96658.06;;;12.32;78.96
73941;BME280;62294;48.554;10.202;2023-01-01T11:47:05;96650.84;;;12.39;78.94
73941;BME280;62294;48.554;10.202;2023-01-01T11:49:33;96653.50;;;12.39;79.08
73941;BME280;62294;48.554;10.202;2023-01-01T11:52:00;96652.44;;;12.47;78.67
73941;BME280;62294;48.554;10.202;2023-01-01T11:54:31;96644.97;;;12.55;78.24
73941;BME280;62294;48.554;10.202;2023-01-01T11:57:09;96636.78;;;12.57;77.81
73941;BME280;62294;48.554;10.202;2023-01-01T11:59:47;96638.75;;;12.68;77.09
73941;BME280;62294;48.554;10.202;2023-01-01T12:02:34;96641.06;;;12.82;76.18
73941;BME280;62294;48.554;10.202;2023-01-01T12:05:46;96628.22;;;12.98;75.37
73941;BME280;62294;48.554;10.202;2023-01-01T12:08:13;96627.63;;;13.38;72.85
73941;BME280;62294;48.554;10.202;2023-01-01T12:10:50;96632.81;;;13.51;71.76
73941;BME280;62294;48.554;10.202;2023-01-01T12:13:21;96626.44;;;13.52;71.56
73941;BME280;62294;48.554;10.202;2023-01-01T12:18:44;96636.22;;;13.59;72.34
73941;BME280;62294;48.554;10.202;2023-01-01T12:21:20;96637.72;;;13.55;72.26
73941;BME280;62294;48.554;10.202;2023-01-01T12:23:50;96631.31;;;13.56;72.36
73941;BME280;62294;48.554;10.202;2023-01-01T12:26:23;96638.31;;;13.57;72.42
73941;BME280;62294;48.554;10.202;2023-01-01T12:31:54;96631.41;;;13.49;72.30
73941;BME280;62294;48.554;10.202;2023-01-01T12:34:34;96628.53;;;13.50;72.11
73941;BME280;62294;48.554;10.202;2023-01-01T12:37:08;96616.13;;;13.56;71.70
73941;BME280;62294;48.554;10.202;2023-01-01T12:42:57;96614.19;;;13.63;71.26
73941;BME280;62294;48.554;10.202;2023-01-01T12:48:26;96598.22;;;13.75;69.95
73941;BME280;62294;48.554;10.202;2023-01-01T12:51:06;96595.78;;;13.73;70.14
73941;BME280;62294;48.554;10.202;2023-01-01T12:56:16;96587.25;;;13.65;71.36
73941;BME280;62294;48.554;10.202;2023-01-01T12:59:14;96586.44;;;13.64;71.23
73941;BME280;62294;48.554;10.202;2023-01-01T13:01:43;96585.84;;;13.62;72.14
73941;BME280;62294;48.554;10.202;2023-01-01T13:04:19;96576.22;;;13.61;72.17
73941;BME280;62294;48.554;10.202;2023-01-01T13:07:01;96581.31;;;13.63;72.17
73941;BME280;62294;48.554;10.202;2023-01-01T13:09:33;96576.66;;;13.58;72.48
73941;BME280;62294;48.554;10.202;2023-01-01T13:12:05;96580.38;;;13.57;73.45
73941;BME280;62294;48.554;10.202;2023-01-01T13:14:41;96583.63;;;13.59;73.20
73941;BME280;62294;48.554;10.202;2023-01-01T13:17:18;96582.97;;;13.64;72.86
73941;BME280;62294;48.554;10.202;2023-01-01T13:19:47;96580.72;;;13.61;72.42
73941;BME280;62294;48.554;10.202;2023-01-01T13:25:18;96581.53;;;13.61;71.93
73941;BME280;62294;48.554;10.202;2023-01-01T13:38:52;96591.19;;;13.44;72.57
73941;BME280;62294;48.554;10.202;2023-01-01T13:49:24;96599.59;;;13.29;73.76
73941;BME280;62294;48.554;10.202;2023-01-01T13:52:27;96586.53;;;13.21;73.87
73941;BME280;62294;48.554;10.202;2023-01-01T13:55:19;96586.00;;;13.13;73.87
73941;BME280;62294;48.554;10.202;2023-01-01T14:03:51;96584.34;;;12.94;74.32
73941;BME280;62294;48.554;10.202;2023-01-01T14:06:36;96580.94;;;12.87;74.70
73941;BME280;62294;48.554;10.202;2023-01-01T14:09:08;96580.31;;;12.84;74.79
73941;BME280;62294;48.554;10.202;2023-01-01T14:11:36;96584.53;;;12.74;75.16
73941;BME280;62294;48.554;10.202;2023-01-01T14:14:17;96591.09;;;12.71;75.66
73941;BME280;62294;48.554;10.202;2023-01-01T14:16:51;96585.78;;;12.71;75.12
73941;BME280;62294;48.554;10.202;2023-01-01T14:19:18;96580.44;;;12.71;75.51
73941;BME280;62294;48.554;10.202;2023-01-01T14:21:44;96587.34;;;12.79;74.75
73941;BME280;62294;48.554;10.202;2023-01-01T14:24:14;96585.72;;;12.78;74.62
73941;BME280;62294;48.554;10.202;2023-01-01T14:26:41;96573.91;;;12.67;74.81
73941;BME280;62294;48.554;10.202;2023-01-01T14:29:12;96570.06;;;12.63;75.06
73941;BME280;62294;48.554;10.202;2023-01-01T14:31:43;96578.63;;;12.47;75.69
73941;BME280;62294;48.554;10.202;2023-01-01T14:34:25;96576.06;;;12.34;76.19